sensor_id;sensor_type;location;lat;lon;timestamp;P1;durP1;ratioP1;P2;durP2;ratioP2
75990;SDS011;64673;52.276;10.560;2024-01-15T00:01:57;5.22;;;2.63;;
75990;SDS011;64673;52.276;10.560;2024-01-15T00:04:22;4.32;;;2.67;;
75990;SDS011;64673;52.276;10.560;2024-01-15T00:06:48;4.40;;;2.27;;
75990;SDS011;64673;52.276;10.560;2024-01-15T00:09:14;7.43;;;4.20;;
75990;SDS011;64673;52.276;10.560;2024-01-15T00:11:40;4.30;;;3.30;;
75990;SDS011;64673;52.276;10.560;2024-01-15T00:14:05;8.13;;;4.00;;
75990;SDS011;64673;52.276;10.560;2024-01-15T00:16:30;4.15;;;2.17;;
75990;SDS011;64673;52.276;10.560;2024-01-15T00:18:56;6.22;;;3.10;;
75990;SDS011;64673;52.276;10.560;2024-01-15T00:21:21;5.45;;;2.53;;
75990;SDS011;64673;52.276;10.560;2024-01-15T00:23:46;8.95;;;3.55;;
75990;SDS011;64673;52.276;10.560;2024-01-15T00:26:12;1.95;;;1.55;;
75990;SDS011;64673;52.276;10.560;2024-01-15T00:28:37;5.22;;;2.63;;
75990;SDS011;64673;52.276;10.560;2024-01-15T00:31:04;2.13;;;1.63;;
75990;SDS011;64673;52.276;10.560;2024-01-15T00:33:30;9.95;;;3.35;;
75990;SDS011;64673;52.276;10.560;2024-01-15T00:35:55;6.22;;;2.83;;
75990;SDS011;64673;52.276;10.560;2024-01-15T00:38:20;2.97;;;1.63;;
75990;SDS011;64673;52.276;10.560;2024-01-15T00:40:46;5.30;;;2.92;;
75990;SDS011;64673;52.276;10.560;2024-01-15T00:43:11;7.55;;;3.63;;
75990;SDS011;64673;52.276;10.560;2024-01-15T00:45:37;4.60;;;2.42;;
75990;SDS011;64673;52.276;10.560;2024-01-15T00:48:02;6.53;;;1.77;;
75990;SDS011;64673;52.276;10.560;2024-01-15T00:50:28;10.68;;;1.40;;
75990;SDS011;64673;52.276;10.560;2024-01-15T00:52:54;4.82;;;2.30;;
75990;SDS011;64673;52.276;10.560;2024-01-15T00:55:19;2.57;;;1.60;;
75990;SDS011;64673;52.276;10.560;2024-01-15T00:57:44;3.42;;;1.75;;
75990;SDS011;64673;52.276;10.560;2024-01-15T01:00:10;4.13;;;1.80;;
75990;SDS011;64673;52.276;10.560;2024-01-15T01:02:36;2.05;;;1.45;;
75990;SDS011;64673;52.276;10.560;2024-01-15T01:05:01;1.10;;;1.05;;
75990;SDS011;64673;52.276;10.560;2024-01-15T01:07:26;2.00;;;1.38;;
75990;SDS011;64673;52.276;10.560;2024-01-15T01:09:51;5.17;;;3.27;;
75990;SDS011;64673;52.276;10.560;2024-01-15T01:12:17;2.15;;;1.40;;
75990;SDS011;64673;52.276;10.560;2024-01-15T01:14:42;4.63;;;2.47;;
75990;SDS011;64673;52.276;10.560;2024-01-15T01:17:07;2.85;;;1.60;;
75990;SDS011;64673;52.276;10.560;2024-01-15T01:19:33;4.70;;;2.38;;
75990;SDS011;64673;52.276;10.560;2024-01-15T01:21:58;1.70;;;1.60;;
75990;SDS011;64673;52.276;10.560;2024-01-15T01:24:23;1.08;;;0.90;;
75990;SDS011;64673;52.276;10.560;2024-01-15T01:26:49;4.20;;;1.70;;
75990;SDS011;64673;52.276;10.560;2024-01-15T01:29:14;3.05;;;1.38;;
75990;SDS011;64673;52.276;10.560;2024-01-15T01:31:43;2.45;;;1.15;;
75990;SDS011;64673;52.276;10.560;2024-01-15T01:34:09;1.85;;;1.67;;
75990;SDS011;64673;52.276;10.560;2024-01-15T01:36:35;2.88;;;1.48;;
75990;SDS011;64673;52.276;10.560;2024-01-15T01:39:00;2.88;;;1.75;;
75990;SDS011;64673;52.276;10.560;2024-01-15T01:41:25;1.92;;;0.63;;
75990;SDS011;64673;52.276;10.560;2024-01-15T01:43:51;3.33;;;2.28;;
75990;SDS011;64673;52.276;10.560;2024-01-15T01:46:16;0.45;;;0.45;;
75990;SDS011;64673;52.276;10.560;2024-01-15T01:48:42;1.60;;;1.38;;
75990;SDS011;64673;52.276;10.560;2024-01-15T01:51:08;1.33;;;0.93;;
75990;SDS011;64673;52.276;10.560;2024-01-15T01:53:34;1.90;;;1.35;;
75990;SDS011;64673;52.276;10.560;2024-01-15T01:56:01;2.65;;;1.70;;
75990;SDS011;64673;52.276;10.560;2024-01-15T01:58:27;2.97;;;1.65;;
75990;SDS011;64673;52.276;10.560;2024-01-15T02:00:53;1.08;;;0.70;;
75990;SDS011;64673;52.276;10.560;2024-01-15T02:03:19;0.32;;;0.32;;
75990;SDS011;64673;52.276;10.560;2024-01-15T02:05:45;0.25;;;0.25;;
75990;SDS011;64673;52.276;10.560;2024-01-15T02:08:13;3.95;;;1.92;;
75990;SDS011;64673;52.276;10.560;2024-01-15T02:10:39;2.85;;;1.83;;
75990;SDS011;64673;52.276;10.560;2024-01-15T02:13:04;1.30;;;0.88;;
75990;SDS011;64673;52.276;10.560;2024-01-15T02:15:30;3.25;;;2.15;;
75990;SDS011;64673;52.276;10.560;2024-01-15T02:17:56;2.17;;;0.75;;
75990;SDS011;64673;52.276;10.560;2024-01-15T02:20:27;2.15;;;1.17;;
75990;SDS011;64673;52.276;10.560;2024-01-15T02:22:53;3.15;;;0.90;;
75990;SDS011;64673;52.276;10.560;2024-01-15T02:25:19;1.55;;;1.17;;
75990;SDS011;64673;52.276;10.560;2024-01-15T02:27:45;1.77;;;1.08;;
75990;SDS011;64673;52.276;10.560;2024-01-15T02:30:11;2.28;;;1.15;;
75990;SDS011;64673;52.276;10.560;2024-01-15T02:32:38;0.30;;;0.30;;
75990;SDS011;64673;52.276;10.560;2024-01-15T02:35:04;1.75;;;1.25;;
75990;SDS011;64673;52.276;10.560;2024-01-15T02:37:29;1.45;;;0.63;;
75990;SDS011;64673;52.276;10.560;2024-01-15T02:39:55;3.08;;;1.77;;
75990;SDS011;64673;52.276;10.560;2024-01-15T02:42:20;0.93;;;0.70;;
75990;SDS011;64673;52.276;10.560;2024-01-15T02:44:45;4.63;;;0.82;;
75990;SDS011;64673;52.276;10.560;2024-01-15T02:47:11;0.52;;;0.52;;
75990;SDS011;64673;52.276;10.560;2024-01-15T02:49:36;0.70;;;0.70;;
75990;SDS011;64673;52.276;10.560;2024-01-15T02:52:02;0.63;;;0.30;;
75990;SDS011;64673;52.276;10.560;2024-01-15T02:54:27;1.48;;;0.88;;
75990;SDS011;64673;52.276;10.560;2024-01-15T02:56:53;1.13;;;0.30;;
75990;SDS011;64673;52.276;10.560;2024-01-15T02:59:18;1.48;;;0.28;;
75990;SDS011;64673;52.276;10.560;2024-01-15T03:01:46;1.77;;;0.60;;
75990;SDS011;64673;52.276;10.560;2024-01-15T03:04:11;0.32;;;0.20;;
75990;SDS011;64673;52.276;10.560;2024-01-15T03:06:37;0.40;;;0.38;;
75990;SDS011;64673;52.276;10.560;2024-01-15T03:09:02;0.10;;;0.10;;
75990;SDS011;64673;52.276;10.560;2024-01-15T03:11:28;0.35;;;0.30;;
75990;SDS011;64673;52.276;10.560;2024-01-15T03:13:54;1.17;;;0.52;;
75990;SDS011;64673;52.276;10.560;2024-01-15T03:16:20;0.60;;;0.50;;
75990;SDS011;64673;52.276;10.560;2024-01-15T03:18:45;0.32;;;0.15;;
75990;SDS011;64673;52.276;10.560;2024-01-15T03:21:11;0.50;;;0.50;;
75990;SDS011;64673;52.276;10.560;2024-01-15T03:23:36;0.38;;;0.32;;
75990;SDS011;64673;52.276;10.560;2024-01-15T03:26:01;1.00;;;0.63;;
75990;SDS011;64673;52.276;10.560;2024-01-15T03:28:27;0.88;;;0.22;;
75990;SDS011;64673;52.276;10.560;2024-01-15T03:30:52;1.08;;;0.80;;
75990;SDS011;64673;52.276;10.560;2024-01-15T03:33:17;29.30;;;1.08;;
75990;SDS011;64673;52.276;10.560;2024-01-15T03:35:43;0.90;;;0.90;;
75990;SDS011;64673;52.276;10.560;2024-01-15T03:38:08;4.93;;;1.10;;
75990;SDS011;64673;52.276;10.560;2024-01-15T03:40:33;0.25;;;0.15;;
75990;SDS011;64673;52.276;10.560;2024-01-15T03:42:59;4.80;;;1.13;;
75990;SDS011;64673;52.276;10.560;2024-01-15T03:45:24;2.53;;;0.77;;
75990;SDS011;64673;52.276;10.560;2024-01-15T03:47:49;2.03;;;1.38;;
75990;SDS011;64673;52.276;10.560;2024-01-15T03:50:15;2.13;;;0.90;;
75990;SDS011;64673;52.276;10.560;2024-01-15T03:52:40;0.80;;;0.57;;
75990;SDS011;64673;52.276;10.560;2024-01-15T03:55:05;2.42;;;0.90;;
75990;SDS011;64673;52.276;10.560;2024-01-15T03:57:31;0.52;;;0.30;;
75990;SDS011;64673;52.276;10.560;2024-01-15T03:59:56;0.00;;;0.00;;
75990;SDS011;64673;52.276;10.560;2024-01-15T04:02:21;8.33;;;0.67;;
75990;SDS011;64673;52.276;10.560;2024-01-15T04:04:47;0.70;;;0.30;;
75990;SDS011;64673;52.276;10.560;2024-01-15T04:07:12;1.80;;;0.50;;
75990;SDS011;64673;52.276;10.560;2024-01-15T04:09:37;0.65;;;0.45;;
75990;SDS011;64673;52.276;10.560;2024-01-15T04:12:03;6.95;;;0.75;;
75990;SDS011;64673;52.276;10.560;2024-01-15T04:14:28;4.88;;;0.65;;
75990;SDS011;64673;52.276;10.560;2024-01-15T04:16:54;0.98;;;0.40;;
75990;SDS011;64673;52.276;10.560;2024-01-15T04:19:19;4.47;;;0.22;;
75990;SDS011;64673;52.276;10.560;2024-01-15T04:21:44;4.00;;;1.27;;
75990;SDS011;64673;52.276;10.560;2024-01-15T04:24:09;1.10;;;0.80;;
75990;SDS011;64673;52.276;10.560;2024-01-15T04:26:35;0.60;;;0.60;;
75990;SDS011;64673;52.276;10.560;2024-01-15T04:29:00;1.55;;;1.30;;
75990;SDS011;64673;52.276;10.560;2024-01-15T04:31:26;5.88;;;0.60;;
75990;SDS011;64673;52.276;10.560;2024-01-15T04:33:54;0.00;;;0.00;;
75990;SDS011;64673;52.276;10.560;2024-01-15T04:36:19;0.10;;;0.10;;
75990;SDS011;64673;52.276;10.560;2024-01-15T04:38:44;1.60;;;0.80;;
75990;SDS011;64673;52.276;10.560;2024-01-15T04:41:13;1.17;;;0.77;;
75990;SDS011;64673;52.276;10.560;2024-01-15T04:43:39;3.72;;;0.82;;
75990;SDS011;64673;52.276;10.560;2024-01-15T04:46:05;0.25;;;0.10;;
75990;SDS011;64673;52.276;10.560;2024-01-15T04:48:32;0.40;;;0.40;;
75990;SDS011;64673;52.276;10.560;2024-01-15T04:50:57;1.35;;;0.28;;
75990;SDS011;64673;52.276;10.560;2024-01-15T04:53:22;0.52;;;0.20;;
75990;SDS011;64673;52.276;10.560;2024-01-15T04:55:48;10.95;;;1.52;;
75990;SDS011;64673;52.276;10.560;2024-01-15T04:58:13;0.60;;;0.60;;
75990;SDS011;64673;52.276;10.560;2024-01-15T05:00:38;1.40;;;0.50;;
75990;SDS011;64673;52.276;10.560;2024-01-15T05:03:04;0.75;;;0.75;;
75990;SDS011;64673;52.276;10.560;2024-01-15T05:05:29;0.08;;;0.08;;
75990;SDS011;64673;52.276;10.560;2024-01-15T05:07:55;0.13;;;0.13;;
75990;SDS011;64673;52.276;10.560;2024-01-15T05:10:20;1.08;;;0.17;;
75990;SDS011;64673;52.276;10.560;2024-01-15T05:12:45;1.85;;;1.23;;
75990;SDS011;64673;52.276;10.560;2024-01-15T05:15:11;0.60;;;0.50;;
75990;SDS011;64673;52.276;10.560;2024-01-15T05:17:36;0.43;;;0.20;;
75990;SDS011;64673;52.276;10.560;2024-01-15T05:20:01;1.70;;;0.77;;
75990;SDS011;64673;52.276;10.560;2024-01-15T05:22:28;2.05;;;1.38;;
75990;SDS011;64673;52.276;10.560;2024-01-15T05:24:53;3.38;;;0.38;;
75990;SDS011;64673;52.276;10.560;2024-01-15T05:27:18;4.13;;;0.77;;
75990;SDS011;64673;52.276;10.560;2024-01-15T05:29:44;0.35;;;0.22;;
75990;SDS011;64673;52.276;10.560;2024-01-15T05:32:09;2.00;;;0.93;;
75990;SDS011;64673;52.276;10.560;2024-01-15T05:34:35;0.85;;;0.85;;
75990;SDS011;64673;52.276;10.560;2024-01-15T05:37:00;0.45;;;0.45;;
75990;SDS011;64673;52.276;10.560;2024-01-15T05:39:25;1.13;;;0.43;;
75990;SDS011;64673;52.276;10.560;2024-01-15T05:41:51;0.47;;;0.45;;
75990;SDS011;64673;52.276;10.560;2024-01-15T05:44:16;0.73;;;0.63;;
75990;SDS011;64673;52.276;10.560;2024-01-15T05:46:42;1.17;;;0.40;;
75990;SDS011;64673;52.276;10.560;2024-01-15T05:49:07;0.40;;;0.40;;
75990;SDS011;64673;52.276;10.560;2024-01-15T05:51:32;2.35;;;0.98;;
75990;SDS011;64673;52.276;10.560;2024-01-15T05:53:58;0.38;;;0.32;;
75990;SDS011;64673;52.276;10.560;2024-01-15T05:56:23;1.38;;;0.75;;
75990;SDS011;64673;52.276;10.560;2024-01-15T05:58:49;0.65;;;0.40;;
75990;SDS011;64673;52.276;10.560;2024-01-15T06:01:14;4.53;;;0.60;;
75990;SDS011;64673;52.276;10.560;2024-01-15T06:03:40;10.68;;;0.63;;
75990;SDS011;64673;52.276;10.560;2024-01-15T06:06:05;2.10;;;0.77;;
75990;SDS011;64673;52.276;10.560;2024-01-15T06:08:30;0.52;;;0.30;;
75990;SDS011;64673;52.276;10.560;2024-01-15T06:10:56;0.75;;;0.63;;
75990;SDS011;64673;52.276;10.560;2024-01-15T06:13:21;0.45;;;0.45;;
75990;SDS011;64673;52.276;10.560;2024-01-15T06:15:47;0.63;;;0.63;;
75990;SDS011;64673;52.276;10.560;2024-01-15T06:18:12;1.85;;;1.20;;
75990;SDS011;64673;52.276;10.560;2024-01-15T06:20:38;1.00;;;0.77;;
75990;SDS011;64673;52.276;10.560;2024-01-15T06:23:03;0.10;;;0.10;;
75990;SDS011;64673;52.276;10.560;2024-01-15T06:25:29;5.97;;;0.90;;
75990;SDS011;64673;52.276;10.560;2024-01-15T06:27:54;0.00;;;0.00;;
75990;SDS011;64673;52.276;10.560;2024-01-15T06:30:19;1.38;;;1.27;;
75990;SDS011;64673;52.276;10.560;2024-01-15T06:32:45;1.25;;;0.32;;
75990;SDS011;64673;52.276;10.560;2024-01-15T06:35:13;0.22;;;0.22;;
75990;SDS011;64673;52.276;10.560;2024-01-15T06:37:38;1.27;;;0.85;;
75990;SDS011;64673;52.276;10.560;2024-01-15T06:40:03;0.73;;;0.40;;
75990;SDS011;64673;52.276;10.560;2024-01-15T06:42:30;0.70;;;0.28;;
75990;SDS011;64673;52.276;10.560;2024-01-15T06:44:56;1.17;;;0.45;;
75990;SDS011;64673;52.276;10.560;2024-01-15T06:47:24;0.93;;;0.68;;
75990;SDS011;64673;52.276;10.560;2024-01-15T06:49:49;0.63;;;0.63;;
75990;SDS011;64673;52.276;10.560;2024-01-15T06:52:15;0.55;;;0.20;;
75990;SDS011;64673;52.276;10.560;2024-01-15T06:54:40;0.45;;;0.22;;
75990;SDS011;64673;52.276;10.560;2024-01-15T06:57:06;3.77;;;0.23;;
75990;SDS011;64673;52.276;10.560;2024-01-15T06:59:31;1.40;;;1.00;;
75990;SDS011;64673;52.276;10.560;2024-01-15T07:01:57;7.13;;;0.80;;
75990;SDS011;64673;52.276;10.560;2024-01-15T07:04:22;1.05;;;0.50;;
75990;SDS011;64673;52.276;10.560;2024-01-15T07:06:47;4.90;;;2.00;;
75990;SDS011;64673;52.276;10.560;2024-01-15T07:09:13;1.60;;;0.68;;
75990;SDS011;64673;52.276;10.560;2024-01-15T07:11:38;4.75;;;0.68;;
75990;SDS011;64673;52.276;10.560;2024-01-15T07:14:08;3.88;;;1.65;;
75990;SDS011;64673;52.276;10.560;2024-01-15T07:16:34;0.73;;;0.40;;
75990;SDS011;64673;52.276;10.560;2024-01-15T07:18:59;0.40;;;0.40;;
75990;SDS011;64673;52.276;10.560;2024-01-15T07:21:24;0.63;;;0.30;;
75990;SDS011;64673;52.276;10.560;2024-01-15T07:23:49;1.67;;;0.33;;
75990;SDS011;64673;52.276;10.560;2024-01-15T07:26:15;8.45;;;1.27;;
75990;SDS011;64673;52.276;10.560;2024-01-15T07:28:40;0.10;;;0.10;;
75990;SDS011;64673;52.276;10.560;2024-01-15T07:31:05;1.23;;;0.73;;
75990;SDS011;64673;52.276;10.560;2024-01-15T07:33:31;1.45;;;0.80;;
75990;SDS011;64673;52.276;10.560;2024-01-15T07:35:56;0.55;;;0.40;;
75990;SDS011;64673;52.276;10.560;2024-01-15T07:38:22;0.65;;;0.65;;
75990;SDS011;64673;52.276;10.560;2024-01-15T07:40:47;5.63;;;0.98;;
75990;SDS011;64673;52.276;10.560;2024-01-15T07:43:14;0.95;;;0.93;;
75990;SDS011;64673;52.276;10.560;2024-01-15T07:45:40;1.73;;;0.77;;
75990;SDS011;64673;52.276;10.560;2024-01-15T07:48:05;1.42;;;0.93;;
75990;SDS011;64673;52.276;10.560;2024-01-15T07:50:31;1.55;;;0.55;;
75990;SDS011;64673;52.276;10.560;2024-01-15T07:52:56;0.00;;;0.00;;
75990;SDS011;64673;52.276;10.560;2024-01-15T07:55:21;2.15;;;0.63;;
75990;SDS011;64673;52.276;10.560;2024-01-15T07:57:47;1.48;;;0.70;;
75990;SDS011;64673;52.276;10.560;2024-01-15T08:00:13;3.78;;;1.20;;
75990;SDS011;64673;52.276;10.560;2024-01-15T08:02:38;0.63;;;0.63;;
75990;SDS011;64673;52.276;10.560;2024-01-15T08:05:04;0.63;;;0.35;;
75990;SDS011;64673;52.276;10.560;2024-01-15T08:07:29;0.55;;;0.55;;
75990;SDS011;64673;52.276;10.560;2024-01-15T08:09:55;2.10;;;0.52;;
75990;SDS011;64673;52.276;10.560;2024-01-15T08:12:20;3.30;;;0.98;;
75990;SDS011;64673;52.276;10.560;2024-01-15T08:14:45;0.68;;;0.63;;
75990;SDS011;64673;52.276;10.560;2024-01-15T08:17:11;6.13;;;0.50;;
75990;SDS011;64673;52.276;10.560;2024-01-15T08:19:36;0.77;;;0.77;;
75990;SDS011;64673;52.276;10.560;2024-01-15T08:22:02;0.30;;;0.22;;
75990;SDS011;64673;52.276;10.560;2024-01-15T08:24:27;0.50;;;0.50;;
75990;SDS011;64673;52.276;10.560;2024-01-15T08:26:53;0.47;;;0.28;;
75990;SDS011;64673;52.276;10.560;2024-01-15T08:29:19;4.68;;;0.85;;
75990;SDS011;64673;52.276;10.560;2024-01-15T08:31:46;0.73;;;0.73;;
75990;SDS011;64673;52.276;10.560;2024-01-15T08:34:11;0.68;;;0.68;;
75990;SDS011;64673;52.276;10.560;2024-01-15T08:36:37;1.50;;;0.52;;
75990;SDS011;64673;52.276;10.560;2024-01-15T08:39:02;1.80;;;0.80;;
75990;SDS011;64673;52.276;10.560;2024-01-15T08:41:29;1.63;;;1.02;;
75990;SDS011;64673;52.276;10.560;2024-01-15T08:43:55;0.30;;;0.30;;
75990;SDS011;64673;52.276;10.560;2024-01-15T08:46:21;1.75;;;1.10;;
75990;SDS011;64673;52.276;10.560;2024-01-15T08:48:46;1.33;;;0.75;;
75990;SDS011;64673;52.276;10.560;2024-01-15T08:51:11;2.30;;;0.63;;
75990;SDS011;64673;52.276;10.560;2024-01-15T08:53:36;0.60;;;0.60;;
75990;SDS011;64673;52.276;10.560;2024-01-15T08:56:02;1.42;;;0.88;;
75990;SDS011;64673;52.276;10.560;2024-01-15T08:58:27;1.52;;;0.77;;
75990;SDS011;64673;52.276;10.560;2024-01-15T09:00:53;0.80;;;0.73;;
75990;SDS011;64673;52.276;10.560;2024-01-15T09:03:18;1.42;;;0.75;;
75990;SDS011;64673;52.276;10.560;2024-01-15T09:05:44;3.47;;;1.42;;
75990;SDS011;64673;52.276;10.560;2024-01-15T09:08:09;6.07;;;0.70;;
75990;SDS011;64673;52.276;10.560;2024-01-15T09:10:35;0.65;;;0.30;;
75990;SDS011;64673;52.276;10.560;2024-01-15T09:13:00;0.28;;;0.28;;
75990;SDS011;64673;52.276;10.560;2024-01-15T09:15:25;2.42;;;0.65;;
75990;SDS011;64673;52.276;10.560;2024-01-15T09:17:51;1.35;;;0.98;;
75990;SDS011;64673;52.276;10.560;2024-01-15T09:20:16;0.43;;;0.43;;
75990;SDS011;64673;52.276;10.560;2024-01-15T09:22:41;1.60;;;0.57;;
75990;SDS011;64673;52.276;10.560;2024-01-15T09:25:10;1.23;;;1.13;;
75990;SDS011;64673;52.276;10.560;2024-01-15T09:30:01;0.38;;;0.38;;
75990;SDS011;64673;52.276;10.560;2024-01-15T09:32:27;1.13;;;1.02;;
75990;SDS011;64673;52.276;10.560;2024-01-15T09:34:54;8.67;;;2.00;;
75990;SDS011;64673;52.276;10.560;2024-01-15T09:37:20;5.30;;;0.98;;
75990;SDS011;64673;52.276;10.560;2024-01-15T09:39:45;1.00;;;0.30;;
75990;SDS011;64673;52.276;10.560;2024-01-15T09:42:13;0.65;;;0.50;;
75990;SDS011;64673;52.276;10.560;2024-01-15T09:44:39;1.98;;;1.15;;
75990;SDS011;64673;52.276;10.560;2024-01-15T09:47:04;1.15;;;0.77;;
75990;SDS011;64673;52.276;10.560;2024-01-15T09:49:30;1.02;;;0.57;;
75990;SDS011;64673;52.276;10.560;2024-01-15T09:51:57;0.15;;;0.15;;
75990;SDS011;64673;52.276;10.560;2024-01-15T09:54:23;0.95;;;0.22;;
75990;SDS011;64673;52.276;10.560;2024-01-15T09:56:48;0.52;;;0.20;;
75990;SDS011;64673;52.276;10.560;2024-01-15T09:59:15;1.23;;;0.55;;
75990;SDS011;64673;52.276;10.560;2024-01-15T10:01:41;2.88;;;0.57;;
75990;SDS011;64673;52.276;10.560;2024-01-15T10:04:08;3.65;;;0.77;;
75990;SDS011;64673;52.276;10.560;2024-01-15T10:06:33;0.20;;;0.20;;
75990;SDS011;64673;52.276;10.560;2024-01-15T10:08:58;3.25;;;0.55;;
75990;SDS011;64673;52.276;10.560;2024-01-15T10:11:24;0.45;;;0.13;;
75990;SDS011;64673;52.276;10.560;2024-01-15T10:13:50;1.00;;;0.90;;
75990;SDS011;64673;52.276;10.560;2024-01-15T10:16:21;1.33;;;0.55;;
75990;SDS011;64673;52.276;10.560;2024-01-15T10:18:48;0.00;;;0.00;;
75990;SDS011;64673;52.276;10.560;2024-01-15T10:21:14;1.65;;;0.70;;
75990;SDS011;64673;52.276;10.560;2024-01-15T10:23:40;1.27;;;0.70;;
75990;SDS011;64673;52.276;10.560;2024-01-15T10:26:06;0.50;;;0.50;;
75990;SDS011;64673;52.276;10.560;2024-01-15T10:28:31;2.85;;;0.98;;
75990;SDS011;64673;52.276;10.560;2024-01-15T10:30:57;1.88;;;0.30;;
75990;SDS011;64673;52.276;10.560;2024-01-15T10:33:26;1.05;;;0.75;;
75990;SDS011;64673;52.276;10.560;2024-01-15T10:35:59;1.92;;;0.55;;
75990;SDS011;64673;52.276;10.560;2024-01-15T10:38:25;13.40;;;1.27;;
75990;SDS011;64673;52.276;10.560;2024-01-15T10:40:51;0.20;;;0.10;;
75990;SDS011;64673;52.276;10.560;2024-01-15T10:43:20;7.32;;;0.20;;
75990;SDS011;64673;52.276;10.560;2024-01-15T10:45:46;0.30;;;0.30;;
75990;SDS011;64673;52.276;10.560;2024-01-15T10:48:13;0.57;;;0.55;;
75990;SDS011;64673;52.276;10.560;2024-01-15T10:50:41;1.40;;;0.60;;
75990;SDS011;64673;52.276;10.560;2024-01-15T10:53:06;3.63;;;0.85;;
75990;SDS011;64673;52.276;10.560;2024-01-15T10:55:35;0.73;;;0.68;;
75990;SDS011;64673;52.276;10.560;2024-01-15T10:58:02;0.90;;;0.20;;
75990;SDS011;64673;52.276;10.560;2024-01-15T11:00:28;1.70;;;0.90;;
75990;SDS011;64673;52.276;10.560;2024-01-15T11:02:54;0.47;;;0.35;;
75990;SDS011;64673;52.276;10.560;2024-01-15T11:05:21;2.47;;;0.70;;
75990;SDS011;64673;52.276;10.560;2024-01-15T11:07:50;5.18;;;1.00;;
75990;SDS011;64673;52.276;10.560;2024-01-15T11:13:03;0.32;;;0.22;;
75990;SDS011;64673;52.276;10.560;2024-01-15T11:15:28;0.30;;;0.10;;
75990;SDS011;64673;52.276;10.560;2024-01-15T11:18:00;0.40;;;0.20;;
75990;SDS011;64673;52.276;10.560;2024-01-15T11:20:28;0.25;;;0.20;;
75990;SDS011;64673;52.276;10.560;2024-01-15T11:22:53;0.32;;;0.30;;
75990;SDS011;64673;52.276;10.560;2024-01-15T11:25:19;0.38;;;0.30;;
75990;SDS011;64673;52.276;10.560;2024-01-15T11:27:49;0.60;;;0.20;;
75990;SDS011;64673;52.276;10.560;2024-01-15T11:30:20;0.00;;;0.00;;
75990;SDS011;64673;52.276;10.560;2024-01-15T11:32:50;0.70;;;0.47;;
75990;SDS011;64673;52.276;10.560;2024-01-15T11:35:15;0.20;;;0.13;;
75990;SDS011;64673;52.276;10.560;2024-01-15T11:40:17;0.00;;;0.00;;
75990;SDS011;64673;52.276;10.560;2024-01-15T11:42:44;0.30;;;0.30;;
75990;SDS011;64673;52.276;10.560;2024-01-15T11:45:10;0.10;;;0.10;;
75990;SDS011;64673;52.276;10.560;2024-01-15T11:48:02;0.05;;;0.03;;
75990;SDS011;64673;52.276;10.560;2024-01-15T11:50:43;1.48;;;0.98;;
75990;SDS011;64673;52.276;10.560;2024-01-15T11:56:02;0.63;;;0.10;;
75990;SDS011;64673;52.276;10.560;2024-01-15T11:58:32;0.20;;;0.17;;
75990;SDS011;64673;52.276;10.560;2024-01-15T12:01:00;1.48;;;0.57;;
75990;SDS011;64673;52.276;10.560;2024-01-15T12:03:27;1.38;;;0.95;;
75990;SDS011;64673;52.276;10.560;2024-01-15T12:05:58;1.63;;;0.93;;
75990;SDS011;64673;52.276;10.560;2024-01-15T12:08:25;0.80;;;0.65;;
75990;SDS011;64673;52.276;10.560;2024-01-15T12:10:52;1.38;;;0.30;;
75990;SDS011;64673;52.276;10.560;2024-01-15T12:13:19;1.58;;;0.40;;
75990;SDS011;64673;52.276;10.560;2024-01-15T12:15:45;0.88;;;0.30;;
75990;SDS011;64673;52.276;10.560;2024-01-15T12:18:13;0.00;;;0.00;;
75990;SDS011;64673;52.276;10.560;2024-01-15T12:20:40;0.35;;;0.32;;
75990;SDS011;64673;52.276;10.560;2024-01-15T12:23:07;1.38;;;0.28;;
75990;SDS011;64673;52.276;10.560;2024-01-15T12:25:33;0.20;;;0.20;;
75990;SDS011;64673;52.276;10.560;2024-01-15T12:27:59;0.15;;;0.10;;
75990;SDS011;64673;52.276;10.560;2024-01-15T12:30:29;0.00;;;0.00;;
75990;SDS011;64673;52.276;10.560;2024-01-15T12:32:56;0.10;;;0.10;;
75990;SDS011;64673;52.276;10.560;2024-01-15T12:35:23;0.68;;;0.65;;
75990;SDS011;64673;52.276;10.560;2024-01-15T12:37:49;0.00;;;0.00;;
75990;SDS011;64673;52.276;10.560;2024-01-15T12:40:18;0.70;;;0.43;;
75990;SDS011;64673;52.276;10.560;2024-01-15T12:42:44;0.40;;;0.40;;
75990;SDS011;64673;52.276;10.560;2024-01-15T12:45:11;0.95;;;0.30;;
75990;SDS011;64673;52.276;10.560;2024-01-15T12:47:37;0.40;;;0.22;;
75990;SDS011;64673;52.276;10.560;2024-01-15T12:50:06;0.10;;;0.10;;
75990;SDS011;64673;52.276;10.560;2024-01-15T12:52:33;0.15;;;0.15;;
75990;SDS011;64673;52.276;10.560;2024-01-15T12:54:58;2.00;;;0.93;;
75990;SDS011;64673;52.276;10.560;2024-01-15T12:57:23;0.73;;;0.60;;
75990;SDS011;64673;52.276;10.560;2024-01-15T12:59:49;0.98;;;0.32;;
75990;SDS011;64673;52.276;10.560;2024-01-15T13:02:15;0.20;;;0.20;;
75990;SDS011;64673;52.276;10.560;2024-01-15T13:04:41;0.30;;;0.30;;
75990;SDS011;64673;52.276;10.560;2024-01-15T13:07:06;0.40;;;0.20;;
75990;SDS011;64673;52.276;10.560;2024-01-15T13:09:32;0.25;;;0.25;;
75990;SDS011;64673;52.276;10.560;2024-01-15T13:11:58;0.22;;;0.22;;
75990;SDS011;64673;52.276;10.560;2024-01-15T13:14:24;2.17;;;0.80;;
75990;SDS011;64673;52.276;10.560;2024-01-15T13:16:49;0.00;;;0.00;;
75990;SDS011;64673;52.276;10.560;2024-01-15T13:19:15;0.00;;;0.00;;
75990;SDS011;64673;52.276;10.560;2024-01-15T13:21:40;1.27;;;0.82;;
75990;SDS011;64673;52.276;10.560;2024-01-15T13:24:06;0.13;;;0.10;;
75990;SDS011;64673;52.276;10.560;2024-01-15T13:26:32;0.10;;;0.10;;
75990;SDS011;64673;52.276;10.560;2024-01-15T13:29:03;0.35;;;0.25;;
75990;SDS011;64673;52.276;10.560;2024-01-15T13:31:29;2.03;;;0.30;;
75990;SDS011;64673;52.276;10.560;2024-01-15T13:33:55;0.22;;;0.15;;
75990;SDS011;64673;52.276;10.560;2024-01-15T13:36:21;0.52;;;0.52;;
75990;SDS011;64673;52.276;10.560;2024-01-15T13:38:48;0.10;;;0.10;;
75990;SDS011;64673;52.276;10.560;2024-01-15T13:41:17;0.52;;;0.50;;
75990;SDS011;64673;52.276;10.560;2024-01-15T13:43:53;0.47;;;0.47;;
75990;SDS011;64673;52.276;10.560;2024-01-15T13:46:19;0.30;;;0.30;;
75990;SDS011;64673;52.276;10.560;2024-01-15T13:48:46;1.40;;;0.20;;
75990;SDS011;64673;52.276;10.560;2024-01-15T13:51:12;0.63;;;0.43;;
75990;SDS011;64673;52.276;10.560;2024-01-15T13:53:38;0.13;;;0.13;;
75990;SDS011;64673;52.276;10.560;2024-01-15T13:56:04;0.20;;;0.20;;
75990;SDS011;64673;52.276;10.560;2024-01-15T13:58:30;0.05;;;0.05;;
75990;SDS011;64673;52.276;10.560;2024-01-15T14:00:55;0.25;;;0.25;;
75990;SDS011;64673;52.276;10.560;2024-01-15T14:03:21;1.02;;;0.15;;
75990;SDS011;64673;52.276;10.560;2024-01-15T14:05:46;1.00;;;0.77;;
75990;SDS011;64673;52.276;10.560;2024-01-15T14:08:11;0.70;;;0.70;;
75990;SDS011;64673;52.276;10.560;2024-01-15T14:10:37;3.33;;;0.73;;
75990;SDS011;64673;52.276;10.560;2024-01-15T14:13:02;0.10;;;0.10;;
75990;SDS011;64673;52.276;10.560;2024-01-15T14:15:28;0.38;;;0.38;;
75990;SDS011;64673;52.276;10.560;2024-01-15T14:17:54;0.35;;;0.20;;
75990;SDS011;64673;52.276;10.560;2024-01-15T14:20:19;0.35;;;0.35;;
75990;SDS011;64673;52.276;10.560;2024-01-15T14:22:44;0.60;;;0.50;;
75990;SDS011;64673;52.276;10.560;2024-01-15T14:25:10;2.07;;;0.30;;
75990;SDS011;64673;52.276;10.560;2024-01-15T14:27:35;5.60;;;0.95;;
75990;SDS011;64673;52.276;10.560;2024-01-15T14:30:01;0.50;;;0.40;;
75990;SDS011;64673;52.276;10.560;2024-01-15T14:32:27;0.20;;;0.20;;
75990;SDS011;64673;52.276;10.560;2024-01-15T14:34:52;0.70;;;0.70;;
75990;SDS011;64673;52.276;10.560;2024-01-15T14:37:17;0.00;;;0.00;;